sensor_id;sensor_type;location;lat;lon;timestamp;P1;durP1;ratioP1;P2;durP2;ratioP2
33505;SDS011;19843;51.040;13.782;2023-07-20T00:02:20;2.80;;;2.17;;
33505;SDS011;19843;51.040;13.782;2023-07-20T00:04:48;3.55;;;2.17;;
33505;SDS011;19843;51.040;13.782;2023-07-20T00:07:15;2.60;;;2.40;;
33505;SDS011;19843;51.040;13.782;2023-07-20T00:09:44;2.35;;;2.13;;
33505;SDS011;19843;51.040;13.782;2023-07-20T00:12:11;2.65;;;2.17;;
33505;SDS011;19843;51.040;13.782;2023-07-20T00:14:39;3.80;;;2.22;;
33505;SDS011;19843;51.040;13.782;2023-07-20T00:17:06;3.17;;;2.28;;
33505;SDS011;19843;51.040;13.782;2023-07-20T00:19:34;2.22;;;2.08;;
33505;SDS011;19843;51.040;13.782;2023-07-20T00:22:02;3.10;;;2.40;;
33505;SDS011;19843;51.040;13.782;2023-07-20T00:24:30;2.05;;;1.83;;
33505;SDS011;19843;51.040;13.782;2023-07-20T00:27:00;4.03;;;1.95;;
33505;SDS011;19843;51.040;13.782;2023-07-20T00:29:29;2.58;;;2.13;;
33505;SDS011;19843;51.040;13.782;2023-07-20T00:31:56;2.55;;;2.15;;
33505;SDS011;19843;51.040;13.782;2023-07-20T00:34:24;7.70;;;2.17;;
33505;SDS011;19843;51.040;13.782;2023-07-20T00:36:52;2.80;;;2.28;;
33505;SDS011;19843;51.040;13.782;2023-07-20T00:39:19;2.58;;;2.10;;
33505;SDS011;19843;51.040;13.782;2023-07-20T00:41:47;2.40;;;1.95;;
33505;SDS011;19843;51.040;13.782;2023-07-20T00:44:16;2.97;;;1.90;;
33505;SDS011;19843;51.040;13.782;2023-07-20T00:46:43;2.28;;;2.08;;
33505;SDS011;19843;51.040;13.782;2023-07-20T00:49:11;1.98;;;1.77;;
33505;SDS011;19843;51.040;13.782;2023-07-20T00:51:38;2.83;;;2.55;;
33505;SDS011;19843;51.040;13.782;2023-07-20T00:54:06;2.47;;;1.95;;
33505;SDS011;19843;51.040;13.782;2023-07-20T00:56:34;1.73;;;1.63;;
33505;SDS011;19843;51.040;13.782;2023-07-20T00:59:02;2.42;;;1.70;;
33505;SDS011;19843;51.040;13.782;2023-07-20T01:01:31;1.90;;;1.80;;
33505;SDS011;19843;51.040;13.782;2023-07-20T01:04:00;1.65;;;1.40;;
33505;SDS011;19843;51.040;13.782;2023-07-20T01:06:29;2.88;;;1.67;;
33505;SDS011;19843;51.040;13.782;2023-07-20T01:09:06;4.60;;;1.77;;
33505;SDS011;19843;51.040;13.782;2023-07-20T01:11:40;1.35;;;1.25;;
33505;SDS011;19843;51.040;13.782;2023-07-20T01:14:11;2.13;;;1.50;;
33505;SDS011;19843;51.040;13.782;2023-07-20T01:16:40;4.38;;;1.30;;
33505;SDS011;19843;51.040;13.782;2023-07-20T01:19:08;1.10;;;1.10;;
33505;SDS011;19843;51.040;13.782;2023-07-20T01:21:39;1.40;;;1.30;;
33505;SDS011;19843;51.040;13.782;2023-07-20T01:30:46;1.00;;;1.00;;
33505;SDS011;19843;51.040;13.782;2023-07-20T01:33:22;2.45;;;1.40;;
33505;SDS011;19843;51.040;13.782;2023-07-20T01:35:54;1.23;;;1.13;;
33505;SDS011;19843;51.040;13.782;2023-07-20T01:38:25;1.60;;;1.13;;
33505;SDS011;19843;51.040;13.782;2023-07-20T01:40:53;1.50;;;1.20;;
33505;SDS011;19843;51.040;13.782;2023-07-20T01:43:20;1.20;;;1.10;;
33505;SDS011;19843;51.040;13.782;2023-07-20T01:45:48;1.73;;;1.40;;
33505;SDS011;19843;51.040;13.782;2023-07-20T01:48:16;3.30;;;1.30;;
33505;SDS011;19843;51.040;13.782;2023-07-20T01:50:45;1.35;;;1.20;;
33505;SDS011;19843;51.040;13.782;2023-07-20T01:53:13;1.83;;;1.25;;
33505;SDS011;19843;51.040;13.782;2023-07-20T01:55:40;1.40;;;1.30;;
33505;SDS011;19843;51.040;13.782;2023-07-20T01:58:08;1.23;;;1.13;;
33505;SDS011;19843;51.040;13.782;2023-07-20T02:00:36;1.75;;;1.23;;
33505;SDS011;19843;51.040;13.782;2023-07-20T02:03:05;1.55;;;1.35;;
33505;SDS011;19843;51.040;13.782;2023-07-20T02:05:33;2.00;;;1.30;;
33505;SDS011;19843;51.040;13.782;2023-07-20T02:08:01;1.95;;;1.50;;
33505;SDS011;19843;51.040;13.782;2023-07-20T02:10:29;1.98;;;1.35;;
33505;SDS011;19843;51.040;13.782;2023-07-20T02:12:57;1.45;;;1.23;;
33505;SDS011;19843;51.040;13.782;2023-07-20T02:15:24;1.73;;;1.60;;
33505;SDS011;19843;51.040;13.782;2023-07-20T02:17:52;3.08;;;1.70;;
33505;SDS011;19843;51.040;13.782;2023-07-20T02:20:19;1.70;;;1.55;;
33505;SDS011;19843;51.040;13.782;2023-07-20T02:22:47;3.50;;;1.70;;
33505;SDS011;19843;51.040;13.782;2023-07-20T02:25:16;4.90;;;2.05;;
33505;SDS011;19843;51.040;13.782;2023-07-20T02:27:43;5.50;;;2.30;;
33505;SDS011;19843;51.040;13.782;2023-07-20T02:30:11;4.20;;;2.25;;
33505;SDS011;19843;51.040;13.782;2023-07-20T02:32:39;2.35;;;2.15;;
33505;SDS011;19843;51.040;13.782;2023-07-20T02:35:11;3.33;;;2.08;;
33505;SDS011;19843;51.040;13.782;2023-07-20T02:37:39;3.42;;;2.40;;
33505;SDS011;19843;51.040;13.782;2023-07-20T02:40:07;2.95;;;2.58;;
33505;SDS011;19843;51.040;13.782;2023-07-20T02:42:37;3.28;;;2.05;;
33505;SDS011;19843;51.040;13.782;2023-07-20T02:45:05;4.70;;;2.90;;
33505;SDS011;19843;51.040;13.782;2023-07-20T02:47:33;5.47;;;2.88;;
33505;SDS011;19843;51.040;13.782;2023-07-20T02:50:01;3.78;;;2.33;;
33505;SDS011;19843;51.040;13.782;2023-07-20T02:52:29;2.80;;;2.40;;
33505;SDS011;19843;51.040;13.782;2023-07-20T02:54:56;4.03;;;2.78;;
33505;SDS011;19843;51.040;13.782;2023-07-20T02:57:24;4.03;;;2.30;;
33505;SDS011;19843;51.040;13.782;2023-07-20T02:59:52;3.85;;;2.83;;
33505;SDS011;19843;51.040;13.782;2023-07-20T03:02:21;4.40;;;2.60;;
33505;SDS011;19843;51.040;13.782;2023-07-20T03:04:48;2.85;;;2.35;;
33505;SDS011;19843;51.040;13.782;2023-07-20T03:07:16;3.97;;;3.40;;
33505;SDS011;19843;51.040;13.782;2023-07-20T03:09:46;2.63;;;2.42;;
33505;SDS011;19843;51.040;13.782;2023-07-20T03:12:14;3.70;;;2.42;;
33505;SDS011;19843;51.040;13.782;2023-07-20T03:14:41;5.63;;;2.97;;
33505;SDS011;19843;51.040;13.782;2023-07-20T03:17:10;4.57;;;2.95;;
33505;SDS011;19843;51.040;13.782;2023-07-20T03:19:38;3.13;;;2.78;;
33505;SDS011;19843;51.040;13.782;2023-07-20T03:22:05;3.17;;;2.80;;
33505;SDS011;19843;51.040;13.782;2023-07-20T03:24:33;3.47;;;2.70;;
33505;SDS011;19843;51.040;13.782;2023-07-20T03:27:00;2.90;;;2.60;;
33505;SDS011;19843;51.040;13.782;2023-07-20T03:29:28;5.47;;;2.85;;
33505;SDS011;19843;51.040;13.782;2023-07-20T03:31:57;2.75;;;2.55;;
33505;SDS011;19843;51.040;13.782;2023-07-20T03:34:26;3.88;;;3.05;;
33505;SDS011;19843;51.040;13.782;2023-07-20T03:36:54;3.53;;;2.85;;
33505;SDS011;19843;51.040;13.782;2023-07-20T03:39:22;3.40;;;2.88;;
33505;SDS011;19843;51.040;13.782;2023-07-20T03:41:50;4.30;;;3.08;;
33505;SDS011;19843;51.040;13.782;2023-07-20T03:44:17;3.40;;;2.25;;
33505;SDS011;19843;51.040;13.782;2023-07-20T03:46:45;4.43;;;2.70;;
33505;SDS011;19843;51.040;13.782;2023-07-20T03:49:12;4.88;;;2.78;;
33505;SDS011;19843;51.040;13.782;2023-07-20T03:51:41;5.50;;;2.72;;
33505;SDS011;19843;51.040;13.782;2023-07-20T03:54:09;9.85;;;2.97;;
33505;SDS011;19843;51.040;13.782;2023-07-20T03:56:36;4.28;;;2.90;;
33505;SDS011;19843;51.040;13.782;2023-07-20T03:59:04;3.13;;;2.50;;
33505;SDS011;19843;51.040;13.782;2023-07-20T04:01:32;3.33;;;2.90;;
33505;SDS011;19843;51.040;13.782;2023-07-20T04:04:04;3.72;;;2.63;;
33505;SDS011;19843;51.040;13.782;2023-07-20T04:06:33;3.42;;;2.78;;
33505;SDS011;19843;51.040;13.782;2023-07-20T04:09:02;4.97;;;2.65;;
33505;SDS011;19843;51.040;13.782;2023-07-20T04:11:31;3.30;;;3.00;;
33505;SDS011;19843;51.040;13.782;2023-07-20T04:13:58;4.25;;;3.03;;
33505;SDS011;19843;51.040;13.782;2023-07-20T04:16:26;3.25;;;2.70;;
33505;SDS011;19843;51.040;13.782;2023-07-20T04:18:54;3.28;;;2.38;;
33505;SDS011;19843;51.040;13.782;2023-07-20T04:21:22;6.40;;;2.90;;
33505;SDS011;19843;51.040;13.782;2023-07-20T04:23:50;2.78;;;2.55;;
33505;SDS011;19843;51.040;13.782;2023-07-20T04:26:19;5.38;;;3.03;;
33505;SDS011;19843;51.040;13.782;2023-07-20T04:28:47;3.75;;;3.17;;
33505;SDS011;19843;51.040;13.782;2023-07-20T04:31:16;3.75;;;2.90;;
33505;SDS011;19843;51.040;13.782;2023-07-20T04:33:44;4.53;;;2.83;;
33505;SDS011;19843;51.040;13.782;2023-07-20T04:36:12;3.42;;;2.60;;
33505;SDS011;19843;51.040;13.782;2023-07-20T04:38:42;5.03;;;3.05;;
33505;SDS011;19843;51.040;13.782;2023-07-20T04:41:09;8.55;;;3.38;;
33505;SDS011;19843;51.040;13.782;2023-07-20T04:43:42;4.53;;;3.05;;
33505;SDS011;19843;51.040;13.782;2023-07-20T04:46:10;6.03;;;3.70;;
33505;SDS011;19843;51.040;13.782;2023-07-20T04:48:37;4.40;;;3.35;;
33505;SDS011;19843;51.040;13.782;2023-07-20T04:51:06;5.75;;;3.35;;
33505;SDS011;19843;51.040;13.782;2023-07-20T04:53:34;6.20;;;3.47;;
33505;SDS011;19843;51.040;13.782;2023-07-20T04:56:02;5.80;;;3.03;;
33505;SDS011;19843;51.040;13.782;2023-07-20T04:58:29;7.60;;;3.80;;
33505;SDS011;19843;51.040;13.782;2023-07-20T05:00:58;4.22;;;3.70;;
33505;SDS011;19843;51.040;13.782;2023-07-20T05:03:26;4.20;;;3.38;;
33505;SDS011;19843;51.040;13.782;2023-07-20T05:05:54;7.75;;;3.88;;
33505;SDS011;19843;51.040;13.782;2023-07-20T05:08:22;6.82;;;3.20;;
33505;SDS011;19843;51.040;13.782;2023-07-20T05:10:49;5.38;;;3.50;;
33505;SDS011;19843;51.040;13.782;2023-07-20T05:13:17;4.28;;;3.67;;
33505;SDS011;19843;51.040;13.782;2023-07-20T05:15:44;3.80;;;3.50;;
33505;SDS011;19843;51.040;13.782;2023-07-20T05:18:13;3.70;;;3.28;;
33505;SDS011;19843;51.040;13.782;2023-07-20T05:20:45;6.13;;;3.63;;
33505;SDS011;19843;51.040;13.782;2023-07-20T05:23:13;6.28;;;3.85;;
33505;SDS011;19843;51.040;13.782;2023-07-20T05:25:41;4.95;;;3.38;;
33505;SDS011;19843;51.040;13.782;2023-07-20T05:28:09;4.55;;;3.75;;
33505;SDS011;19843;51.040;13.782;2023-07-20T05:30:37;3.80;;;3.45;;
33505;SDS011;19843;51.040;13.782;2023-07-20T05:33:04;6.13;;;3.63;;
33505;SDS011;19843;51.040;13.782;2023-07-20T05:35:33;4.45;;;3.05;;
33505;SDS011;19843;51.040;13.782;2023-07-20T05:38:03;5.10;;;3.38;;
33505;SDS011;19843;51.040;13.782;2023-07-20T05:40:32;5.30;;;3.00;;
33505;SDS011;19843;51.040;13.782;2023-07-20T05:43:00;4.47;;;3.78;;
33505;SDS011;19843;51.040;13.782;2023-07-20T05:45:27;4.18;;;3.00;;
33505;SDS011;19843;51.040;13.782;2023-07-20T05:47:55;5.80;;;3.20;;
33505;SDS011;19843;51.040;13.782;2023-07-20T05:50:22;3.28;;;2.92;;
33505;SDS011;19843;51.040;13.782;2023-07-20T05:52:53;10.32;;;3.20;;
33505;SDS011;19843;51.040;13.782;2023-07-20T05:55:21;3.95;;;2.60;;
33505;SDS011;19843;51.040;13.782;2023-07-20T05:57:48;6.65;;;2.63;;
33505;SDS011;19843;51.040;13.782;2023-07-20T06:00:16;6.10;;;2.90;;
33505;SDS011;19843;51.040;13.782;2023-07-20T06:02:45;6.03;;;2.72;;
33505;SDS011;19843;51.040;13.782;2023-07-20T06:05:14;4.93;;;3.08;;
33505;SDS011;19843;51.040;13.782;2023-07-20T06:07:41;3.47;;;2.97;;
33505;SDS011;19843;51.040;13.782;2023-07-20T06:10:10;11.45;;;3.15;;
33505;SDS011;19843;51.040;13.782;2023-07-20T06:12:38;4.75;;;3.22;;
33505;SDS011;19843;51.040;13.782;2023-07-20T06:15:10;4.18;;;3.22;;
33505;SDS011;19843;51.040;13.782;2023-07-20T06:17:53;3.38;;;2.83;;
33505;SDS011;19843;51.040;13.782;2023-07-20T06:20:22;3.88;;;3.17;;
33505;SDS011;19843;51.040;13.782;2023-07-20T06:22:49;8.20;;;3.42;;
33505;SDS011;19843;51.040;13.782;2023-07-20T06:25:18;5.05;;;3.30;;
33505;SDS011;19843;51.040;13.782;2023-07-20T06:27:48;6.25;;;3.30;;
33505;SDS011;19843;51.040;13.782;2023-07-20T06:30:16;4.20;;;3.42;;
33505;SDS011;19843;51.040;13.782;2023-07-20T06:32:44;10.27;;;4.13;;
33505;SDS011;19843;51.040;13.782;2023-07-20T06:35:12;5.93;;;3.42;;
33505;SDS011;19843;51.040;13.782;2023-07-20T06:37:40;3.50;;;3.15;;
33505;SDS011;19843;51.040;13.782;2023-07-20T06:40:08;3.67;;;2.85;;
33505;SDS011;19843;51.040;13.782;2023-07-20T06:42:40;5.20;;;2.63;;
33505;SDS011;19843;51.040;13.782;2023-07-20T06:45:10;3.22;;;2.58;;
33505;SDS011;19843;51.040;13.782;2023-07-20T06:47:38;3.72;;;3.22;;
33505;SDS011;19843;51.040;13.782;2023-07-20T06:50:07;2.85;;;2.60;;
33505;SDS011;19843;51.040;13.782;2023-07-20T06:52:35;4.57;;;2.85;;
33505;SDS011;19843;51.040;13.782;2023-07-20T06:55:03;3.72;;;2.55;;
33505;SDS011;19843;51.040;13.782;2023-07-20T06:57:32;2.88;;;2.50;;
33505;SDS011;19843;51.040;13.782;2023-07-20T07:00:01;3.92;;;2.97;;
33505;SDS011;19843;51.040;13.782;2023-07-20T07:02:30;8.73;;;2.65;;
33505;SDS011;19843;51.040;13.782;2023-07-20T07:04:57;4.18;;;2.40;;
33505;SDS011;19843;51.040;13.782;2023-07-20T07:07:44;6.03;;;2.95;;
33505;SDS011;19843;51.040;13.782;2023-07-20T07:10:11;3.08;;;2.65;;
33505;SDS011;19843;51.040;13.782;2023-07-20T07:12:40;3.65;;;2.10;;
33505;SDS011;19843;51.040;13.782;2023-07-20T07:15:09;2.40;;;1.48;;
33505;SDS011;19843;51.040;13.782;2023-07-20T07:17:38;2.35;;;1.77;;
33505;SDS011;19843;51.040;13.782;2023-07-20T07:20:06;1.95;;;1.85;;
33505;SDS011;19843;51.040;13.782;2023-07-20T07:22:45;4.20;;;1.90;;
33505;SDS011;19843;51.040;13.782;2023-07-20T07:25:13;2.53;;;2.17;;
33505;SDS011;19843;51.040;13.782;2023-07-20T07:27:48;2.13;;;2.03;;
33505;SDS011;19843;51.040;13.782;2023-07-20T07:30:17;2.53;;;2.33;;
33505;SDS011;19843;51.040;13.782;2023-07-20T07:32:45;3.20;;;2.90;;
33505;SDS011;19843;51.040;13.782;2023-07-20T07:35:12;4.32;;;3.08;;
33505;SDS011;19843;51.040;13.782;2023-07-20T07:37:42;3.80;;;3.00;;
33505;SDS011;19843;51.040;13.782;2023-07-20T07:40:30;3.25;;;2.95;;
33505;SDS011;19843;51.040;13.782;2023-07-20T07:42:57;3.28;;;2.90;;
33505;SDS011;19843;51.040;13.782;2023-07-20T07:45:26;2.65;;;2.45;;
33505;SDS011;19843;51.040;13.782;2023-07-20T07:47:54;4.45;;;2.92;;
33505;SDS011;19843;51.040;13.782;2023-07-20T07:50:21;3.50;;;3.15;;
33505;SDS011;19843;51.040;13.782;2023-07-20T07:52:49;2.67;;;2.47;;
33505;SDS011;19843;51.040;13.782;2023-07-20T07:55:17;2.85;;;2.35;;
33505;SDS011;19843;51.040;13.782;2023-07-20T07:57:44;3.58;;;2.50;;
33505;SDS011;19843;51.040;13.782;2023-07-20T08:00:14;2.90;;;2.15;;
33505;SDS011;19843;51.040;13.782;2023-07-20T08:02:46;2.90;;;2.50;;
33505;SDS011;19843;51.040;13.782;2023-07-20T08:05:15;2.85;;;2.30;;
33505;SDS011;19843;51.040;13.782;2023-07-20T08:07:43;2.80;;;2.60;;
33505;SDS011;19843;51.040;13.782;2023-07-20T08:10:13;2.13;;;1.92;;
33505;SDS011;19843;51.040;13.782;2023-07-20T08:12:41;2.72;;;2.42;;
33505;SDS011;19843;51.040;13.782;2023-07-20T08:15:10;2.45;;;2.20;;
33505;SDS011;19843;51.040;13.782;2023-07-20T08:17:38;2.50;;;2.30;;
33505;SDS011;19843;51.040;13.782;2023-07-20T08:20:08;2.90;;;2.70;;
33505;SDS011;19843;51.040;13.782;2023-07-20T08:22:38;3.90;;;2.67;;
33505;SDS011;19843;51.040;13.782;2023-07-20T08:25:06;4.43;;;2.75;;
33505;SDS011;19843;51.040;13.782;2023-07-20T08:27:34;3.20;;;3.00;;
33505;SDS011;19843;51.040;13.782;2023-07-20T08:30:04;4.25;;;3.17;;
33505;SDS011;19843;51.040;13.782;2023-07-20T08:32:32;3.25;;;2.92;;
33505;SDS011;19843;51.040;13.782;2023-07-20T08:35:00;3.47;;;3.10;;
33505;SDS011;19843;51.040;13.782;2023-07-20T08:37:29;3.47;;;3.17;;
33505;SDS011;19843;51.040;13.782;2023-07-20T08:39:57;3.20;;;2.90;;
33505;SDS011;19843;51.040;13.782;2023-07-20T08:42:24;4.82;;;3.33;;
33505;SDS011;19843;51.040;13.782;2023-07-20T08:44:53;3.67;;;3.38;;
33505;SDS011;19843;51.040;13.782;2023-07-20T08:47:24;6.13;;;3.60;;
33505;SDS011;19843;51.040;13.782;2023-07-20T08:49:53;4.20;;;3.80;;
33505;SDS011;19843;51.040;13.782;2023-07-20T08:52:22;4.40;;;4.00;;
33505;SDS011;19843;51.040;13.782;2023-07-20T08:54:51;4.28;;;3.55;;
33505;SDS011;19843;51.040;13.782;2023-07-20T08:57:20;3.40;;;3.10;;
33505;SDS011;19843;51.040;13.782;2023-07-20T08:59:48;3.47;;;3.08;;
33505;SDS011;19843;51.040;13.782;2023-07-20T09:02:19;3.22;;;3.03;;
33505;SDS011;19843;51.040;13.782;2023-07-20T09:04:52;2.95;;;2.72;;
33505;SDS011;19843;51.040;13.782;2023-07-20T09:07:20;3.65;;;3.35;;
33505;SDS011;19843;51.040;13.782;2023-07-20T09:10:12;6.65;;;2.90;;
33505;SDS011;19843;51.040;13.782;2023-07-20T09:12:41;2.95;;;2.70;;
33505;SDS011;19843;51.040;13.782;2023-07-20T09:15:10;2.80;;;2.60;;
33505;SDS011;19843;51.040;13.782;2023-07-20T09:17:38;3.10;;;2.80;;
33505;SDS011;19843;51.040;13.782;2023-07-20T09:20:08;3.28;;;2.97;;
33505;SDS011;19843;51.040;13.782;2023-07-20T09:22:37;2.88;;;2.67;;
33505;SDS011;19843;51.040;13.782;2023-07-20T09:25:06;3.53;;;3.03;;
33505;SDS011;19843;51.040;13.782;2023-07-20T09:27:36;3.25;;;3.05;;
33505;SDS011;19843;51.040;13.782;2023-07-20T09:30:05;3.10;;;2.70;;
33505;SDS011;19843;51.040;13.782;2023-07-20T09:32:38;3.03;;;2.80;;
33505;SDS011;19843;51.040;13.782;2023-07-20T09:35:20;3.05;;;2.83;;
33505;SDS011;19843;51.040;13.782;2023-07-20T09:37:53;2.70;;;2.50;;
33505;SDS011;19843;51.040;13.782;2023-07-20T09:40:25;2.83;;;2.63;;
33505;SDS011;19843;51.040;13.782;2023-07-20T09:42:58;3.15;;;2.75;;
33505;SDS011;19843;51.040;13.782;2023-07-20T09:45:29;3.13;;;2.92;;
33505;SDS011;19843;51.040;13.782;2023-07-20T09:48:03;2.90;;;2.65;;
33505;SDS011;19843;51.040;13.782;2023-07-20T09:50:39;3.33;;;2.60;;
33505;SDS011;19843;51.040;13.782;2023-07-20T09:53:09;4.55;;;2.40;;
33505;SDS011;19843;51.040;13.782;2023-07-20T09:55:39;3.30;;;3.00;;
33505;SDS011;19843;51.040;13.782;2023-07-20T09:58:09;2.95;;;2.60;;
33505;SDS011;19843;51.040;13.782;2023-07-20T10:00:38;2.80;;;2.60;;
33505;SDS011;19843;51.040;13.782;2023-07-20T10:03:09;4.65;;;2.88;;
33505;SDS011;19843;51.040;13.782;2023-07-20T10:05:39;3.40;;;2.90;;
33505;SDS011;19843;51.040;13.782;2023-07-20T10:08:11;3.88;;;3.03;;
33505;SDS011;19843;51.040;13.782;2023-07-20T10:10:42;3.35;;;3.05;;
33505;SDS011;19843;51.040;13.782;2023-07-20T10:13:13;4.00;;;3.60;;
33505;SDS011;19843;51.040;13.782;2023-07-20T10:15:46;3.85;;;3.42;;
33505;SDS011;19843;51.040;13.782;2023-07-20T10:18:17;5.03;;;3.22;;
33505;SDS011;19843;51.040;13.782;2023-07-20T10:20:55;4.20;;;3.90;;
33505;SDS011;19843;51.040;13.782;2023-07-20T10:23:29;4.47;;;4.07;;
33505;SDS011;19843;51.040;13.782;2023-07-20T10:25:57;5.68;;;4.70;;
33505;SDS011;19843;51.040;13.782;2023-07-20T10:28:27;5.03;;;4.25;;
33505;SDS011;19843;51.040;13.782;2023-07-20T10:30:55;4.40;;;4.00;;
33505;SDS011;19843;51.040;13.782;2023-07-20T10:33:23;3.17;;;2.88;;
33505;SDS011;19843;51.040;13.782;2023-07-20T10:35:51;3.75;;;3.45;;
33505;SDS011;19843;51.040;13.782;2023-07-20T10:38:25;4.20;;;3.83;;
33505;SDS011;19843;51.040;13.782;2023-07-20T10:41:15;4.00;;;3.60;;
33505;SDS011;19843;51.040;13.782;2023-07-20T10:43:47;4.18;;;3.70;;
33505;SDS011;19843;51.040;13.782;2023-07-20T10:46:19;4.45;;;4.05;;
33505;SDS011;19843;51.040;13.782;2023-07-20T10:49:03;6.03;;;3.65;;
33505;SDS011;19843;51.040;13.782;2023-07-20T10:51:38;8.30;;;4.20;;
33505;SDS011;19843;51.040;13.782;2023-07-20T10:54:07;5.00;;;3.78;;
33505;SDS011;19843;51.040;13.782;2023-07-20T10:56:35;3.92;;;3.63;;
33505;SDS011;19843;51.040;13.782;2023-07-20T10:59:17;3.40;;;2.97;;
33505;SDS011;19843;51.040;13.782;2023-07-20T11:01:46;3.42;;;2.65;;
33505;SDS011;19843;51.040;13.782;2023-07-20T11:04:16;3.65;;;3.30;;
33505;SDS011;19843;51.040;13.782;2023-07-20T11:06:45;3.60;;;3.30;;
33505;SDS011;19843;51.040;13.782;2023-07-20T11:09:14;3.33;;;2.97;;
33505;SDS011;19843;51.040;13.782;2023-07-20T11:11:46;3.35;;;3.13;;
33505;SDS011;19843;51.040;13.782;2023-07-20T11:14:21;3.15;;;2.90;;
33505;SDS011;19843;51.040;13.782;2023-07-20T11:16:50;3.05;;;2.75;;
33505;SDS011;19843;51.040;13.782;2023-07-20T11:19:19;2.90;;;2.63;;
33505;SDS011;19843;51.040;13.782;2023-07-20T11:21:53;3.08;;;2.50;;
33505;SDS011;19843;51.040;13.782;2023-07-20T11:24:29;2.30;;;2.20;;
33505;SDS011;19843;51.040;13.782;2023-07-20T11:26:56;3.15;;;2.90;;
33505;SDS011;19843;51.040;13.782;2023-07-20T11:29:25;3.53;;;3.22;;
33505;SDS011;19843;51.040;13.782;2023-07-20T11:31:59;3.53;;;3.20;;
33505;SDS011;19843;51.040;13.782;2023-07-20T11:34:31;3.40;;;3.10;;
33505;SDS011;19843;51.040;13.782;2023-07-20T11:37:00;3.72;;;3.38;;
33505;SDS011;19843;51.040;13.782;2023-07-20T11:39:31;4.90;;;3.78;;
33505;SDS011;19843;51.040;13.782;2023-07-20T11:41:59;4.43;;;4.03;;
33505;SDS011;19843;51.040;13.782;2023-07-20T11:44:28;4.20;;;3.53;;
33505;SDS011;19843;51.040;13.782;2023-07-20T11:47:00;3.67;;;3.38;;
33505;SDS011;19843;51.040;13.782;2023-07-20T11:49:30;3.25;;;3.03;;
33505;SDS011;19843;51.040;13.782;2023-07-20T11:52:00;3.75;;;3.45;;
33505;SDS011;19843;51.040;13.782;2023-07-20T11:54:28;3.80;;;3.10;;
33505;SDS011;19843;51.040;13.782;2023-07-20T11:56:56;4.18;;;3.78;;
33505;SDS011;19843;51.040;13.782;2023-07-20T11:59:30;3.33;;;3.05;;
33505;SDS011;19843;51.040;13.782;2023-07-20T12:01:58;3.67;;;3.28;;
33505;SDS011;19843;51.040;13.782;2023-07-20T12:04:30;3.70;;;3.40;;
33505;SDS011;19843;51.040;13.782;2023-07-20T12:07:04;3.22;;;3.03;;
33505;SDS011;19843;51.040;13.782;2023-07-20T12:09:34;3.45;;;3.17;;
33505;SDS011;19843;51.040;13.782;2023-07-20T12:12:18;3.20;;;3.00;;
33505;SDS011;19843;51.040;13.782;2023-07-20T12:14:47;3.30;;;3.00;;
33505;SDS011;19843;51.040;13.782;2023-07-20T12:17:15;2.85;;;2.65;;
33505;SDS011;19843;51.040;13.782;2023-07-20T12:19:43;3.40;;;3.10;;
33505;SDS011;19843;51.040;13.782;2023-07-20T12:22:12;3.67;;;2.78;;
33505;SDS011;19843;51.040;13.782;2023-07-20T12:24:42;3.58;;;3.28;;
33505;SDS011;19843;51.040;13.782;2023-07-20T12:27:12;3.70;;;3.40;;
33505;SDS011;19843;51.040;13.782;2023-07-20T12:29:40;3.47;;;3.28;;
33505;SDS011;19843;51.040;13.782;2023-07-20T12:32:09;3.63;;;3.33;;
33505;SDS011;19843;51.040;13.782;2023-07-20T12:34:38;4.65;;;3.90;;
33505;SDS011;19843;51.040;13.782;2023-07-20T12:37:05;4.85;;;4.35;;
33505;SDS011;19843;51.040;13.782;2023-07-20T12:39:36;4.43;;;3.53;;
33505;SDS011;19843;51.040;13.782;2023-07-20T12:42:03;3.95;;;3.55;;
33505;SDS011;19843;51.040;13.782;2023-07-20T12:44:32;4.28;;;3.97;;
33505;SDS011;19843;51.040;13.782;2023-07-20T12:46:59;5.10;;;4.53;;
33505;SDS011;19843;51.040;13.782;2023-07-20T12:49:28;4.30;;;3.90;;
33505;SDS011;19843;51.040;13.782;2023-07-20T12:52:00;4.40;;;4.00;;
33505;SDS011;19843;51.040;13.782;2023-07-20T12:54:28;3.65;;;3.35;;
33505;SDS011;19843;51.040;13.782;2023-07-20T12:56:57;3.10;;;2.90;;
33505;SDS011;19843;51.040;13.782;2023-07-20T12:59:28;3.88;;;3.47;;
33505;SDS011;19843;51.040;13.782;2023-07-20T13:01:56;2.78;;;2.53;;
33505;SDS011;19843;51.040;13.782;2023-07-20T13:04:23;3.13;;;2.80;;
33505;SDS011;19843;51.040;13.782;2023-07-20T13:06:52;3.17;;;2.47;;
33505;SDS011;19843;51.040;13.782;2023-07-20T13:09:20;2.22;;;2.10;;
33505;SDS011;19843;51.040;13.782;2023-07-20T13:11:48;2.38;;;2.17;;
33505;SDS011;19843;51.040;13.782;2023-07-20T13:14:16;2.60;;;2.40;;
33505;SDS011;19843;51.040;13.782;2023-07-20T13:16:44;3.63;;;2.83;;
33505;SDS011;19843;51.040;13.782;2023-07-20T13:19:12;2.10;;;2.00;;
33505;SDS011;19843;51.040;13.782;2023-07-20T13:21:39;2.42;;;2.22;;
33505;SDS011;19843;51.040;13.782;2023-07-20T13:24:08;2.65;;;2.40;;
33505;SDS011;19843;51.040;13.782;2023-07-20T13:26:36;2.22;;;2.03;;
33505;SDS011;19843;51.040;13.782;2023-07-20T13:29:03;2.22;;;2.00;;
33505;SDS011;19843;51.040;13.782;2023-07-20T13:31:31;2.10;;;1.92;;
33505;SDS011;19843;51.040;13.782;2023-07-20T13:34:00;1.67;;;1.58;;
33505;SDS011;19843;51.040;13.782;2023-07-20T13:36:29;2.72;;;2.13;;
33505;SDS011;19843;51.040;13.782;2023-07-20T13:38:57;2.83;;;2.03;;
33505;SDS011;19843;51.040;13.782;2023-07-20T13:41:27;3.15;;;1.70;;
33505;SDS011;19843;51.040;13.782;2023-07-20T13:43:56;2.10;;;1.90;;
33505;SDS011;19843;51.040;13.782;2023-07-20T13:46:24;5.18;;;2.00;;
33505;SDS011;19843;51.040;13.782;2023-07-20T13:48:54;1.77;;;1.67;;
33505;SDS011;19843;51.040;13.782;2023-07-20T13:51:24;2.13;;;1.58;;
33505;SDS011;19843;51.040;13.782;2023-07-20T13:53:53;1.80;;;1.67;;
33505;SDS011;19843;51.040;13.782;2023-07-20T13:56:21;1.73;;;1.63;;
33505;SDS011;19843;51.040;13.782;2023-07-20T13:58:50;7.03;;;1.85;;
33505;SDS011;19843;51.040;13.782;2023-07-20T14:01:18;2.08;;;1.98;;
33505;SDS011;19843;51.040;13.782;2023-07-20T14:03:48;1.65;;;1.55;;
33505;SDS011;19843;51.040;13.782;2023-07-20T14:06:19;1.95;;;1.75;;
33505;SDS011;19843;51.040;13.782;2023-07-20T14:08:50;2.20;;;1.70;;
33505;SDS011;19843;51.040;13.782;2023-07-20T14:11:19;1.42;;;1.33;;
33505;SDS011;19843;51.040;13.782;2023-07-20T14:13:51;1.73;;;1.63;;
33505;SDS011;19843;51.040;13.782;2023-07-20T14:16:19;1.73;;;1.48;;
33505;SDS011;19843;51.040;13.782;2023-07-20T14:18:47;1.50;;;1.40;;
33505;SDS011;19843;51.040;13.782;2023-07-20T14:21:15;1.40;;;1.30;;
33505;SDS011;19843;51.040;13.782;2023-07-20T14:23:44;1.17;;;1.08;;
33505;SDS011;19843;51.040;13.782;2023-07-20T14:26:12;2.78;;;1.45;;
33505;SDS011;19843;51.040;13.782;2023-07-20T14:28:40;1.40;;;1.30;;
33505;SDS011;19843;51.040;13.782;2023-07-20T14:31:09;1.30;;;1.08;;
33505;SDS011;19843;51.040;13.782;2023-07-20T14:33:36;2.10;;;1.20;;
33505;SDS011;19843;51.040;13.782;2023-07-20T14:36:04;1.45;;;1.20;;
33505;SDS011;19843;51.040;13.782;2023-07-20T14:38:33;1.00;;;1.00;;
33505;SDS011;19843;51.040;13.782;2023-07-20T14:41:04;3.08;;;1.35;;
33505;SDS011;19843;51.040;13.782;2023-07-20T14:43:33;1.65;;;1.25;;
33505;SDS011;19843;51.040;13.782;2023-07-20T14:46:00;1.42;;;1.33;;
33505;SDS011;19843;51.040;13.782;2023-07-20T14:48:29;1.48;;;1.20;;
33505;SDS011;19843;51.040;13.782;2023-07-20T14:50:57;1.75;;;1.30;;
33505;SDS011;19843;51.040;13.782;2023-07-20T14:53:27;1.45;;;1.35;;